createdAt,value
2023-01-15T00:04:09.859Z,6.50
2023-01-15T00:09:11.157Z,6.33
2023-01-15T00:14:09.578Z,6.41
2023-01-15T00:19:21.652Z,6.27
2023-01-15T00:24:41.893Z,6.58
2023-01-15T00:29:41.028Z,6.49
2023-01-15T00:34:39.581Z,6.46
2023-01-15T00:39:37.682Z,6.40
2023-01-15T00:50:50.037Z,6.49
2023-01-15T00:55:48.725Z,6.34
2023-01-15T01:00:47.429Z,6.30
2023-01-15T01:05:45.984Z,6.15
2023-01-15T01:10:46.451Z,6.43
2023-01-15T01:15:44.821Z,6.25
2023-01-15T01:20:43.540Z,6.15
2023-01-15T01:25:41.087Z,5.78
2023-01-15T01:30:39.727Z,5.87
2023-01-15T01:35:39.732Z,5.70
2023-01-15T01:40:38.919Z,5.87
2023-01-15T01:45:37.815Z,6.09
2023-01-15T01:50:38.445Z,5.92
2023-01-15T01:55:36.655Z,6.44
2023-01-15T02:00:35.642Z,6.38
2023-01-15T02:05:37.080Z,6.42
2023-01-15T02:10:36.244Z,6.54
2023-01-15T02:15:47.235Z,6.64
2023-01-15T02:20:52.759Z,5.90
2023-01-15T02:26:08.908Z,5.96
2023-01-15T02:31:17.562Z,5.97
2023-01-15T02:36:16.515Z,6.04
2023-01-15T02:41:17.905Z,6.47
2023-01-15T02:46:22.452Z,6.47
2023-01-15T02:51:23.944Z,6.42
2023-01-15T02:56:26.613Z,6.49
2023-01-15T03:01:29.640Z,6.54
2023-01-15T03:06:38.703Z,6.46
2023-01-15T03:11:47.894Z,6.35
2023-01-15T03:16:51.341Z,6.60
2023-01-15T03:22:00.092Z,6.50
2023-01-15T03:27:00.857Z,6.43
2023-01-15T03:32:00.758Z,6.50
2023-01-15T03:36:58.814Z,6.34
2023-01-15T03:42:24.232Z,6.25
2023-01-15T03:47:42.078Z,6.37
2023-01-15T03:52:47.405Z,6.36
2023-01-15T03:57:51.347Z,6.45
2023-01-15T04:02:50.126Z,6.41
2023-01-15T04:07:49.578Z,6.51
2023-01-15T04:12:49.522Z,6.34
2023-01-15T04:17:49.657Z,6.42
2023-01-15T04:22:48.868Z,6.36
2023-01-15T04:27:47.880Z,6.51
2023-01-15T04:32:57.128Z,6.30
2023-01-15T04:37:57.778Z,6.39
2023-01-15T04:43:16.105Z,6.46
2023-01-15T04:48:13.692Z,6.15
2023-01-15T04:53:12.419Z,5.57
2023-01-15T04:58:10.304Z,5.31
2023-01-15T05:03:08.903Z,5.27
2023-01-15T05:08:07.122Z,4.94
2023-01-15T05:13:06.022Z,5.00
2023-01-15T05:18:04.925Z,5.54
2023-01-15T05:23:03.732Z,5.68
2023-01-15T05:28:02.323Z,5.92
2023-01-15T05:33:01.259Z,5.32
2023-01-15T05:37:59.828Z,5.72
2023-01-15T05:42:58.700Z,6.05
2023-01-15T05:47:57.270Z,6.30
2023-01-15T05:52:56.016Z,5.95
2023-01-15T05:57:55.146Z,5.59
2023-01-15T06:02:54.093Z,5.44
2023-01-15T06:07:52.948Z,5.32
2023-01-15T06:12:50.305Z,5.16
2023-01-15T06:17:50.911Z,5.19
2023-01-15T06:22:49.727Z,5.18
2023-01-15T06:27:54.351Z,5.07
2023-01-15T06:32:52.023Z,5.06
2023-01-15T06:37:50.674Z,5.14
2023-01-15T06:43:09.201Z,5.16
2023-01-15T06:48:09.016Z,5.25
2023-01-15T06:53:08.389Z,5.38
2023-01-15T06:58:07.074Z,5.34
2023-01-15T07:03:06.274Z,5.28
2023-01-15T07:08:04.929Z,5.27
2023-01-15T07:13:07.436Z,5.50
2023-01-15T07:18:06.014Z,5.56
2023-01-15T07:23:04.674Z,5.99
2023-01-15T07:28:14.033Z,6.07
2023-01-15T07:33:13.135Z,6.12
2023-01-15T07:38:10.834Z,6.21
2023-01-15T07:43:29.728Z,6.52
2023-01-15T07:48:49.041Z,6.81
2023-01-15T07:53:59.356Z,6.90
2023-01-15T07:58:57.870Z,7.07
2023-01-15T08:03:55.401Z,6.90
2023-01-15T08:08:52.980Z,7.28
2023-01-15T08:14:10.556Z,7.43
2023-01-15T08:19:08.909Z,7.44
2023-01-15T08:24:07.590Z,7.51
2023-01-15T08:29:06.406Z,7.78
2023-01-15T08:34:04.875Z,7.85
2023-01-15T08:39:04.263Z,8.02
2023-01-15T08:44:03.659Z,7.85
2023-01-15T08:49:01.667Z,7.79
2023-01-15T08:54:01.454Z,7.79
2023-01-15T08:59:25.648Z,7.45
2023-01-15T09:04:59.381Z,8.26
2023-01-15T09:09:59.081Z,8.26
2023-01-15T09:15:01.692Z,7.84
2023-01-15T09:20:04.872Z,8.06
2023-01-15T09:25:06.010Z,8.58
2023-01-15T09:30:05.354Z,8.83
2023-01-15T09:35:03.974Z,9.01
2023-01-15T09:46:15.659Z,9.01
2023-01-15T09:51:17.859Z,9.40
2023-01-15T09:56:28.053Z,9.45
2023-01-15T10:01:31.402Z,9.59
2023-01-15T10:06:49.054Z,9.71
2023-01-15T10:12:40.960Z,9.80
2023-01-15T10:18:24.087Z,8.44
2023-01-15T10:23:39.494Z,8.91
2023-01-15T10:29:14.215Z,9.49
2023-01-15T10:35:11.253Z,9.52
2023-01-15T10:40:29.092Z,8.70
2023-01-15T10:45:34.388Z,8.83
2023-01-15T10:50:44.105Z,8.35
2023-01-15T10:55:50.812Z,8.52
2023-01-15T11:00:57.769Z,8.46
2023-01-15T11:05:58.245Z,8.54
2023-01-15T11:11:11.144Z,8.82
2023-01-15T11:16:50.084Z,8.56
2023-01-15T11:21:52.488Z,8.68
2023-01-15T11:26:52.603Z,8.83
2023-01-15T11:31:51.150Z,8.72
2023-01-15T11:36:49.232Z,9.01
2023-01-15T11:42:35.496Z,9.04
2023-01-15T11:47:53.747Z,8.85
2023-01-15T11:53:01.562Z,9.02
2023-01-15T11:58:12.124Z,9.13
2023-01-15T12:03:23.566Z,9.20
2023-01-15T12:08:28.809Z,9.45
2023-01-15T12:13:46.072Z,9.69
2023-01-15T12:19:22.791Z,9.59
2023-01-15T12:24:36.584Z,9.84
2023-01-15T12:29:54.960Z,9.62
2023-01-15T12:35:06.465Z,9.62
2023-01-15T12:40:20.069Z,9.69
2023-01-15T12:45:27.812Z,9.80
2023-01-15T12:50:37.321Z,9.88
2023-01-15T12:55:41.762Z,9.91
2023-01-15T13:00:43.541Z,9.76
2023-01-15T13:05:52.271Z,9.51
2023-01-15T13:10:52.005Z,9.73
2023-01-15T13:15:59.698Z,9.71
2023-01-15T13:20:59.051Z,9.07
2023-01-15T13:26:18.859Z,9.59
2023-01-15T13:32:14.295Z,9.53
2023-01-15T13:37:22.352Z,9.61
2023-01-15T13:42:38.635Z,9.45
2023-01-15T13:47:48.388Z,9.52
2023-01-15T13:53:37.722Z,9.52
2023-01-15T13:58:56.957Z,9.48
2023-01-15T14:04:20.639Z,9.73
2023-01-15T14:09:20.008Z,9.61
2023-01-15T14:14:34.887Z,9.45
2023-01-15T14:20:02.616Z,9.34
2023-01-15T14:25:31.961Z,9.35
2023-01-15T14:31:02.803Z,9.07
2023-01-15T14:36:26.219Z,9.20
2023-01-15T14:41:33.153Z,9.04
2023-01-15T14:46:35.123Z,9.05
2023-01-15T14:51:48.325Z,8.85
2023-01-15T14:56:58.302Z,8.68
2023-01-15T15:02:02.848Z,8.55
2023-01-15T15:07:12.442Z,8.13
2023-01-15T15:12:35.384Z,8.02
2023-01-15T15:18:01.848Z,8.05
2023-01-15T15:23:16.321Z,8.01
2023-01-15T15:28:21.021Z,7.98
2023-01-15T15:39:20.649Z,7.73
2023-01-15T15:44:56.842Z,7.55
2023-01-15T15:49:58.338Z,7.55
2023-01-15T15:55:09.283Z,7.45
2023-01-15T16:00:18.129Z,7.34
2023-01-15T16:05:39.149Z,7.43
2023-01-15T16:10:36.669Z,7.12
2023-01-15T16:15:40.033Z,7.03
2023-01-15T16:20:39.474Z,6.97
2023-01-15T16:25:40.977Z,6.95
2023-01-15T16:31:11.257Z,7.04
2023-01-15T16:36:09.831Z,6.72
2023-01-15T16:41:18.653Z,6.61
2023-01-15T16:46:18.118Z,6.57
2023-01-15T16:51:42.410Z,6.78
2023-01-15T16:56:41.578Z,6.59
2023-01-15T17:01:44.871Z,6.36
2023-01-15T17:06:42.936Z,6.54
2023-01-15T17:11:53.398Z,6.37
2023-01-15T17:17:21.097Z,6.47
2023-01-15T17:22:28.850Z,6.34
2023-01-15T17:27:28.719Z,6.24
2023-01-15T17:32:36.576Z,6.18
2023-01-15T17:37:34.303Z,5.96
2023-01-15T17:42:31.895Z,6.05
2023-01-15T17:47:32.744Z,6.03
2023-01-15T17:52:34.491Z,5.99
2023-01-15T17:57:58.381Z,5.91
2023-01-15T18:03:18.279Z,5.84
2023-01-15T18:08:23.767Z,5.82
2023-01-15T18:13:28.630Z,5.80
2023-01-15T18:18:31.084Z,5.74
2023-01-15T18:23:35.372Z,5.57
2023-01-15T18:28:35.327Z,5.84
2023-01-15T18:33:37.420Z,5.82
2023-01-15T18:38:36.636Z,5.64
2023-01-15T18:44:00.861Z,5.46
2023-01-15T18:48:59.836Z,5.17
2023-01-15T18:53:58.449Z,5.44
2023-01-15T18:58:58.810Z,5.17
2023-01-15T19:03:58.912Z,5.54
2023-01-15T19:09:24.569Z,5.37
2023-01-15T19:14:44.783Z,5.46
2023-01-15T19:19:45.927Z,5.41
2023-01-15T19:25:28.183Z,5.27
2023-01-15T19:30:28.214Z,5.29
2023-01-15T19:35:29.860Z,5.25
2023-01-15T19:40:41.433Z,5.24
2023-01-15T19:46:05.464Z,5.11
2023-01-15T19:51:06.696Z,5.29
2023-01-15T19:56:09.082Z,5.00
2023-01-15T20:01:25.608Z,4.87
2023-01-15T20:06:59.363Z,4.80
2023-01-15T20:12:30.930Z,4.67
2023-01-15T20:18:15.655Z,4.64
2023-01-15T20:23:17.778Z,4.50
2023-01-15T20:28:20.061Z,4.50
2023-01-15T20:33:22.878Z,4.84
2023-01-15T20:38:25.173Z,4.34
2023-01-15T20:43:46.912Z,4.44
2023-01-15T20:49:40.074Z,4.30
2023-01-15T20:54:42.708Z,4.25
2023-01-15T20:59:45.874Z,4.07
2023-01-15T21:04:46.981Z,4.25
2023-01-15T21:09:46.564Z,4.06
2023-01-15T21:14:47.515Z,3.97
2023-01-15T21:19:55.791Z,4.04
2023-01-15T21:25:06.989Z,4.09
2023-01-15T21:30:14.600Z,3.90
2023-01-15T21:35:16.595Z,3.52
2023-01-15T21:40:27.677Z,3.76
2023-01-15T21:45:30.701Z,3.82
2023-01-15T21:50:36.664Z,3.70
2023-01-15T21:55:37.026Z,3.65
2023-01-15T22:00:38.103Z,3.74
2023-01-15T22:05:37.171Z,3.62
2023-01-15T22:10:38.498Z,3.62
2023-01-15T22:15:39.178Z,3.51
2023-01-15T22:20:37.284Z,3.69
2023-01-15T22:25:48.769Z,3.43
2023-01-15T22:30:51.509Z,3.12
2023-01-15T22:36:13.301Z,3.19
2023-01-15T22:41:36.893Z,3.28
2023-01-15T22:46:40.045Z,3.38
2023-01-15T22:51:42.871Z,3.43
2023-01-15T22:57:05.264Z,3.27
2023-01-15T23:02:06.011Z,3.32
2023-01-15T23:07:16.156Z,3.39
2023-01-15T23:12:17.287Z,3.48
2023-01-15T23:17:28.429Z,3.25
2023-01-15T23:22:32.203Z,3.41
2023-01-15T23:27:46.322Z,3.27
2023-01-15T23:32:46.304Z,3.44
2023-01-15T23:37:58.585Z,3.15
2023-01-15T23:43:17.341Z,3.37
2023-01-15T23:48:22.031Z,3.31
2023-01-15T23:53:29.439Z,3.39
2023-01-15T23:58:48.028Z,3.34
